createdAt,value
2022-09-06T00:00:18.657Z,95467.34
2022-09-06T00:02:47.397Z,95456.03
2022-09-06T00:05:15.518Z,95461.13
2022-09-06T00:07:44.947Z,95458.47
2022-09-06T00:10:13.589Z,95449.69
2022-09-06T00:12:41.749Z,95455.81
2022-09-06T00:15:10.745Z,95459.97
2022-09-06T00:17:38.758Z,95452.06
2022-09-06T00:20:09.329Z,95449.50
2022-09-06T00:22:37.543Z,95447.69
2022-09-06T00:25:08.136Z,95439.44
2022-09-06T00:27:36.691Z,95439.63
2022-09-06T00:30:05.746Z,95455.59
2022-09-06T00:32:34.045Z,95448.47
2022-09-06T00:35:02.074Z,95452.75
2022-09-06T00:37:30.205Z,95454.44
2022-09-06T00:39:58.277Z,95465.75
2022-09-06T00:42:27.715Z,95461.53
2022-09-06T00:44:55.883Z,95469.00
2022-09-06T00:47:24.088Z,95464.19
2022-09-06T00:49:54.601Z,95461.03
2022-09-06T00:52:24.219Z,95464.19
2022-09-06T00:54:52.776Z,95451.41
2022-09-06T00:57:21.280Z,95462.03
2022-09-06T00:59:51.662Z,95459.88
2022-09-06T01:02:20.249Z,95463.84
2022-09-06T01:04:51.230Z,95455.59
2022-09-06T01:07:28.985Z,95437.28
2022-09-06T01:10:14.801Z,95448.22
2022-09-06T01:12:51.326Z,95443.72
2022-09-06T01:15:32.365Z,95438.75
2022-09-06T01:18:14.230Z,95440.31
2022-09-06T01:21:15.333Z,95437.59
2022-09-06T01:24:29.179Z,95457.41
2022-09-06T01:27:35.263Z,95460.78
2022-09-06T01:30:10.288Z,95455.13
2022-09-06T01:32:48.192Z,95459.97
2022-09-06T01:35:23.050Z,95462.56
2022-09-06T01:37:51.346Z,95468.34
2022-09-06T01:40:19.571Z,95463.59
2022-09-06T01:42:51.580Z,95461.38
2022-09-06T01:45:24.475Z,95467.25
2022-09-06T01:48:10.694Z,95470.41
2022-09-06T01:50:51.070Z,95472.00
2022-09-06T01:53:34.545Z,95466.69
2022-09-06T01:56:10.084Z,95469.84
2022-09-06T01:58:56.755Z,95470.97
2022-09-06T02:01:31.553Z,95464.22
2022-09-06T02:04:04.651Z,95465.84
2022-09-06T02:06:36.867Z,95463.94
2022-09-06T02:09:09.009Z,95456.25
2022-09-06T02:11:41.806Z,95458.91
2022-09-06T02:14:14.572Z,95461.56
2022-09-06T02:16:46.810Z,95458.84
2022-09-06T02:19:19.306Z,95452.97
2022-09-06T02:21:48.726Z,95455.56
2022-09-06T02:24:21.146Z,95454.00
2022-09-06T02:26:49.457Z,95451.38
2022-09-06T02:29:18.642Z,95446.88
2022-09-06T02:31:51.921Z,95462.53
2022-09-06T02:34:21.261Z,95467.88
2022-09-06T02:36:49.616Z,95467.72
2022-09-06T02:39:17.732Z,95461.09
2022-09-06T02:41:47.971Z,95461.31
2022-09-06T02:44:16.224Z,95456.97
2022-09-06T02:46:44.247Z,95462.72
2022-09-06T02:49:13.648Z,95462.16
2022-09-06T02:51:41.876Z,95463.75
2022-09-06T02:54:09.917Z,95453.66
2022-09-06T02:56:38.193Z,95455.22
2022-09-06T02:59:06.966Z,95447.78
2022-09-06T03:01:35.319Z,95449.88
2022-09-06T03:04:03.965Z,95454.63
2022-09-06T03:06:33.608Z,95444.59
2022-09-06T03:09:01.843Z,95440.88
2022-09-06T03:11:29.859Z,95442.47
2022-09-06T03:13:57.878Z,95437.16
2022-09-06T03:16:26.005Z,95439.81
2022-09-06T03:18:54.070Z,95443.06
2022-09-06T03:21:22.097Z,95448.44
2022-09-06T03:23:51.529Z,95451.16
2022-09-06T03:26:19.639Z,95447.59
2022-09-06T03:28:47.714Z,95445.50
2022-09-06T03:31:15.743Z,95444.94
2022-09-06T03:33:43.791Z,95438.56
2022-09-06T03:36:11.875Z,95427.88
2022-09-06T03:38:40.075Z,95428.34
2022-09-06T03:41:09.446Z,95420.91
2022-09-06T03:43:37.693Z,95431.75
2022-09-06T03:46:05.890Z,95429.91
2022-09-06T03:48:33.956Z,95435.72
2022-09-06T03:51:02.260Z,95441.03
2022-09-06T03:53:30.669Z,95437.31
2022-09-06T03:55:59.723Z,95433.59
2022-09-06T03:58:32.970Z,95434.38
2022-09-06T04:01:02.828Z,95440.56
2022-09-06T04:03:30.963Z,95445.78
2022-09-06T04:05:58.985Z,95439.78
2022-09-06T04:08:27.659Z,95449.66
2022-09-06T04:10:56.401Z,95439.31
2022-09-06T04:13:25.432Z,95438.81
2022-09-06T04:15:55.173Z,95436.66
2022-09-06T04:18:23.641Z,95422.81
2022-09-06T04:20:53.310Z,95424.44
2022-09-06T04:23:21.936Z,95428.13
2022-09-06T04:25:51.411Z,95436.59
2022-09-06T04:28:20.047Z,95432.88
2022-09-06T04:30:55.146Z,95430.19
2022-09-06T04:33:25.926Z,95430.47
2022-09-06T04:35:54.904Z,95431.78
2022-09-06T04:38:23.089Z,95431.22
2022-09-06T04:40:51.273Z,95425.91
2022-09-06T04:43:19.515Z,95420.03
2022-09-06T04:45:47.675Z,95420.03
2022-09-06T04:48:17.321Z,95421.63
2022-09-06T04:50:45.391Z,95424.78
2022-09-06T04:53:13.503Z,95418.41
2022-09-06T04:55:41.631Z,95417.84
2022-09-06T04:58:09.696Z,95411.50
2022-09-06T05:00:38.947Z,95406.19
2022-09-06T05:03:07.007Z,95412.03
2022-09-06T05:05:36.488Z,95413.63
2022-09-06T05:08:04.772Z,95426.38
2022-09-06T05:10:32.772Z,95418.28
2022-09-06T05:13:00.794Z,95413.25
2022-09-06T05:15:28.835Z,95405.75
2022-09-06T05:18:04.423Z,95410.50
2022-09-06T05:20:32.671Z,95421.63
2022-09-06T05:23:02.322Z,95417.91
2022-09-06T05:25:31.181Z,95425.13
2022-09-06T05:27:59.168Z,95432.84
2022-09-06T05:30:27.176Z,95438.09
2022-09-06T05:32:55.183Z,95448.81
2022-09-06T05:35:23.249Z,95456.22
2022-09-06T05:37:51.325Z,95439.78
2022-09-06T05:40:20.735Z,95430.19
2022-09-06T05:42:48.766Z,95418.00
2022-09-06T05:45:17.181Z,95407.41
2022-09-06T05:47:45.244Z,95437.09
2022-09-06T05:50:13.587Z,95441.28
2022-09-06T05:52:41.599Z,95424.28
2022-09-06T05:55:10.413Z,95441.03
2022-09-06T05:57:39.872Z,95438.66
2022-09-06T06:00:12.088Z,95451.41
2022-09-06T06:02:41.047Z,95440.81
2022-09-06T06:05:09.772Z,95430.97
2022-09-06T06:07:37.783Z,95423.88
2022-09-06T06:10:06.723Z,95432.81
2022-09-06T06:12:34.691Z,95429.03
2022-09-06T06:15:05.766Z,95418.19
2022-09-06T06:17:34.188Z,95419.13
2022-09-06T06:20:02.260Z,95423.47
2022-09-06T06:22:30.269Z,95418.28
2022-09-06T06:24:58.336Z,95417.69
2022-09-06T06:27:26.387Z,95431.28
2022-09-06T06:29:54.388Z,95453.97
2022-09-06T06:32:23.769Z,95460.81
2022-09-06T06:34:51.768Z,95462.09
2022-09-06T06:37:19.811Z,95467.41
2022-09-06T06:39:47.984Z,95474.69
2022-09-06T06:42:16.130Z,95486.97
2022-09-06T06:44:53.556Z,95512.47
2022-09-06T06:47:22.954Z,95515.66
2022-09-06T06:49:51.041Z,95501.59
2022-09-06T06:52:21.417Z,95486.53
2022-09-06T06:54:50.170Z,95486.06
2022-09-06T06:57:18.192Z,95484.00
2022-09-06T06:59:46.256Z,95493.00
2022-09-06T07:02:15.765Z,95486.06
2022-09-06T07:04:45.338Z,95477.63
2022-09-06T07:12:49.407Z,95479.34
2022-09-06T07:15:17.508Z,95504.22
2022-09-06T07:17:45.777Z,95538.22
2022-09-06T07:20:16.063Z,95556.25
2022-09-06T07:22:44.481Z,95561.28
2022-09-06T07:25:16.588Z,95549.38
2022-09-06T07:27:49.480Z,95520.25
2022-09-06T07:30:19.610Z,95502.22
2022-09-06T07:32:47.779Z,95505.66
2022-09-06T07:35:17.480Z,95538.22
2022-09-06T07:37:53.081Z,95538.22
2022-09-06T07:40:21.119Z,95493.75
2022-09-06T07:42:49.388Z,95447.13
2022-09-06T07:45:17.761Z,95434.44
2022-09-06T07:48:01.119Z,95445.56
2022-09-06T07:50:48.430Z,95443.19
2022-09-06T07:53:24.604Z,95446.31
2022-09-06T07:55:57.282Z,95443.13
2022-09-06T07:58:25.403Z,95435.38
2022-09-06T08:00:53.454Z,95438.78
2022-09-06T08:03:21.576Z,95436.84
2022-09-06T08:06:09.988Z,95442.59
2022-09-06T08:11:28.932Z,95463.16
2022-09-06T08:13:58.161Z,95460.13
2022-09-06T08:16:29.045Z,95462.97
2022-09-06T08:18:58.573Z,95465.38
2022-09-06T08:21:30.314Z,95472.50
2022-09-06T08:24:00.508Z,95469.19
2022-09-06T08:26:30.203Z,95480.53
2022-09-06T08:29:00.262Z,95477.09
2022-09-06T08:31:29.598Z,95491.59
2022-09-06T08:33:58.275Z,95481.59
2022-09-06T08:36:29.716Z,95479.34
2022-09-06T08:38:57.995Z,95478.09
2022-09-06T08:41:27.954Z,95482.13
2022-09-06T08:46:55.453Z,95476.97
2022-09-06T08:49:24.944Z,95476.88
2022-09-06T08:52:14.453Z,95481.03
2022-09-06T08:54:49.729Z,95477.75
2022-09-06T08:57:40.117Z,95482.50
2022-09-06T09:00:12.282Z,95472.97
2022-09-06T09:02:45.343Z,95474.50
2022-09-06T09:05:26.550Z,95462.41
2022-09-06T09:08:07.415Z,95463.38
2022-09-06T09:10:42.588Z,95457.69
2022-09-06T09:13:19.904Z,95452.59
2022-09-06T09:15:48.019Z,95450.06
2022-09-06T09:18:21.841Z,95447.38
2022-09-06T09:20:49.897Z,95446.66
2022-09-06T09:23:19.279Z,95444.75
2022-09-06T09:25:49.247Z,95444.94
2022-09-06T09:28:20.359Z,95433.25
2022-09-06T09:30:51.168Z,95428.06
2022-09-06T09:33:23.846Z,95428.06
2022-09-06T09:35:52.809Z,95419.63
2022-09-06T09:38:25.779Z,95420.72
2022-09-06T09:40:55.666Z,95401.13
2022-09-06T09:43:25.795Z,95404.72
2022-09-06T09:46:17.496Z,95402.88
2022-09-06T09:49:01.202Z,95403.19
2022-09-06T09:51:30.456Z,95387.41
2022-09-06T09:54:01.704Z,95398.06
2022-09-06T09:56:41.506Z,95399.84
2022-09-06T09:59:21.983Z,95391.22
2022-09-06T10:01:50.472Z,95391.38
2022-09-06T10:07:14.275Z,95382.31
2022-09-06T10:09:46.525Z,95379.78
2022-09-06T10:12:20.150Z,95384.50
2022-09-06T10:14:49.703Z,95367.13
2022-09-06T10:17:29.011Z,95361.97
2022-09-06T10:19:57.748Z,95363.72
2022-09-06T10:22:30.601Z,95362.53
2022-09-06T10:25:48.934Z,95365.66
2022-09-06T10:28:41.856Z,95353.66
2022-09-06T10:31:33.989Z,95346.00
2022-09-06T10:34:31.867Z,95342.31
2022-09-06T10:37:09.607Z,95338.34
2022-09-06T10:39:49.493Z,95332.25
2022-09-06T10:42:29.940Z,95338.88
2022-09-06T10:45:25.399Z,95336.16
2022-09-06T10:47:58.612Z,95333.09
2022-09-06T10:50:34.874Z,95327.16
2022-09-06T10:53:10.779Z,95320.00
2022-09-06T10:55:41.289Z,95319.19
2022-09-06T11:00:47.677Z,95311.16
2022-09-06T11:06:18.326Z,95303.56
2022-09-06T11:08:57.837Z,95299.78
2022-09-06T11:11:35.530Z,95296.09
2022-09-06T11:14:10.154Z,95283.53
2022-09-06T11:16:44.925Z,95279.41
2022-09-06T11:19:17.793Z,95296.72
2022-09-06T11:22:24.889Z,95287.59
2022-09-06T11:25:34.296Z,95284.59
2022-09-06T11:28:05.141Z,95279.09
2022-09-06T11:30:35.392Z,95279.69
2022-09-06T11:33:11.474Z,95279.41
2022-09-06T11:35:42.650Z,95271.44
2022-09-06T11:38:22.722Z,95264.44
2022-09-06T11:41:00.683Z,95258.13
2022-09-06T11:43:47.634Z,95259.81
2022-09-06T11:46:53.179Z,95260.75
2022-09-06T11:49:32.371Z,95255.56
2022-09-06T11:52:00.557Z,95249.63
2022-09-06T11:54:44.909Z,95254.97
2022-09-06T11:57:17.695Z,95253.38
2022-09-06T11:59:57.386Z,95249.56
2022-09-06T12:02:35.351Z,95240.13
2022-09-06T12:05:30.247Z,95239.66
2022-09-06T12:08:29.249Z,95235.25
2022-09-06T12:11:00.908Z,95242.78
2022-09-06T12:13:54.381Z,95245.63
2022-09-06T12:16:23.247Z,95245.81
2022-09-06T12:18:57.449Z,95238.91
2022-09-06T12:21:52.460Z,95240.00
2022-09-06T12:24:52.422Z,95231.34
2022-09-06T12:27:22.408Z,95236.06
2022-09-06T12:29:56.233Z,95235.44
2022-09-06T12:32:27.900Z,95223.81
2022-09-06T12:37:55.656Z,95249.63
2022-09-06T12:40:26.572Z,95247.41
2022-09-06T12:42:55.336Z,95248.38
2022-09-06T12:45:27.378Z,95238.63
2022-09-06T12:48:06.192Z,95241.47
2022-09-06T12:50:34.243Z,95235.31
2022-09-06T12:53:05.729Z,95248.38
2022-09-06T12:55:36.323Z,95241.78
2022-09-06T12:58:07.514Z,95242.09
2022-09-06T13:00:37.985Z,95234.50
2022-09-06T13:03:11.919Z,95234.84
2022-09-06T13:05:41.598Z,95234.84
2022-09-06T13:08:15.871Z,95237.00
2022-09-06T13:10:46.278Z,95228.97
2022-09-06T13:13:22.181Z,95229.41
2022-09-06T13:15:50.610Z,95227.50
2022-09-06T13:18:27.373Z,95228.28
2022-09-06T13:21:00.701Z,95226.00
2022-09-06T13:23:31.603Z,95221.44
2022-09-06T13:25:59.700Z,95222.00
2022-09-06T13:28:30.055Z,95217.47
2022-09-06T13:31:08.149Z,95217.31
2022-09-06T13:33:37.922Z,95213.69
2022-09-06T13:36:20.767Z,95202.03
2022-09-06T13:38:50.803Z,95206.09
2022-09-06T13:41:38.907Z,95210.84
2022-09-06T13:44:08.977Z,95195.66
2022-09-06T13:46:37.309Z,95197.44
2022-09-06T13:49:06.171Z,95191.53
2022-09-06T13:51:35.241Z,95178.94
2022-09-06T13:54:10.594Z,95177.22
2022-09-06T13:56:39.315Z,95187.88
2022-09-06T13:59:09.910Z,95187.03
2022-09-06T14:01:39.413Z,95179.16
2022-09-06T14:04:08.340Z,95186.44
2022-09-06T14:06:37.237Z,95182.47
2022-09-06T14:09:08.331Z,95174.25
2022-09-06T14:11:37.200Z,95167.69
2022-09-06T14:14:05.579Z,95183.69
2022-09-06T14:16:34.465Z,95187.81
2022-09-06T14:19:02.591Z,95178.34
2022-09-06T14:21:30.660Z,95171.84
2022-09-06T14:24:03.921Z,95169.63
2022-09-06T14:26:34.861Z,95166.47
2022-09-06T14:29:03.251Z,95171.44
2022-09-06T14:31:32.670Z,95178.25
2022-09-06T14:34:02.218Z,95179.13
2022-09-06T14:36:31.873Z,95165.41
2022-09-06T14:39:00.917Z,95156.53
2022-09-06T14:41:29.102Z,95162.16
2022-09-06T14:43:59.634Z,95166.63
2022-09-06T14:46:29.892Z,95157.69
2022-09-06T14:48:59.427Z,95164.50
2022-09-06T14:51:27.485Z,95168.09
2022-09-06T14:53:58.514Z,95169.97
2022-09-06T14:56:27.181Z,95169.41
2022-09-06T14:58:57.556Z,95179.19
2022-09-06T15:01:32.927Z,95171.97
2022-09-06T15:04:05.403Z,95176.69
2022-09-06T15:06:36.795Z,95171.34
2022-09-06T15:09:05.738Z,95176.66
2022-09-06T15:11:36.326Z,95171.34
2022-09-06T15:14:06.294Z,95175.13
2022-09-06T15:16:36.554Z,95175.97
2022-09-06T15:19:05.002Z,95178.34
2022-09-06T15:21:33.511Z,95174.00
2022-09-06T15:24:02.551Z,95182.81
2022-09-06T15:26:31.501Z,95171.31
2022-09-06T15:28:59.495Z,95180.63
2022-09-06T15:31:27.639Z,95172.75
2022-09-06T15:33:58.114Z,95172.75
2022-09-06T15:36:26.217Z,95173.69
2022-09-06T15:38:54.878Z,95162.06
2022-09-06T15:41:25.334Z,95167.41
2022-09-06T15:43:56.812Z,95158.91
2022-09-06T15:46:43.496Z,95163.94
2022-09-06T15:49:14.797Z,95157.66
2022-09-06T15:51:43.308Z,95154.53
2022-09-06T15:54:12.765Z,95156.44
2022-09-06T15:56:40.323Z,95155.50
2022-09-06T15:59:08.373Z,95166.84
2022-09-06T16:01:38.597Z,95162.75
2022-09-06T16:04:07.736Z,95151.13
2022-09-06T16:06:39.702Z,95146.13
2022-09-06T16:09:10.374Z,95134.94
2022-09-06T16:11:38.807Z,95132.91
2022-09-06T16:14:08.698Z,95141.06
2022-09-06T16:16:37.033Z,95146.09
2022-09-06T16:19:05.654Z,95139.19
2022-09-06T16:21:35.811Z,95138.25
2022-09-06T16:24:07.040Z,95146.44
2022-09-06T16:26:37.171Z,95149.88
2022-09-06T16:29:07.057Z,95148.00
2022-09-06T16:31:39.706Z,95147.06
2022-09-06T16:34:08.702Z,95145.78
2022-09-06T16:36:36.953Z,95161.09
2022-09-06T16:39:07.140Z,95178.25
2022-09-06T16:41:40.473Z,95176.13
2022-09-06T16:44:09.477Z,95166.19
2022-09-06T16:46:40.188Z,95187.72
2022-09-06T16:49:08.347Z,95204.72
2022-09-06T16:51:36.905Z,95227.84
2022-09-06T16:54:06.331Z,95281.69
2022-09-06T16:56:36.008Z,95256.34
2022-09-06T16:59:05.988Z,95257.78
2022-09-06T17:01:34.695Z,95256.31
2022-09-06T17:04:03.534Z,95247.09
2022-09-06T17:06:33.072Z,95266.72
2022-09-06T17:09:01.149Z,95268.44
2022-09-06T17:11:30.890Z,95265.97
2022-09-06T17:13:59.174Z,95247.69
2022-09-06T17:16:44.786Z,95235.78
2022-09-06T17:19:13.592Z,95196.31
2022-09-06T17:21:41.943Z,95191.94
2022-09-06T17:24:10.704Z,95174.88
2022-09-06T17:26:41.115Z,95163.56
2022-09-06T17:29:10.471Z,95162.00
2022-09-06T17:31:38.996Z,95151.38
2022-09-06T17:34:07.742Z,95159.66
2022-09-06T17:36:36.532Z,95137.13
2022-09-06T17:39:06.525Z,95133.81
2022-09-06T17:41:38.748Z,95119.22
2022-09-06T17:44:10.559Z,95129.50
2022-09-06T17:46:47.562Z,95116.78
2022-09-06T17:49:20.659Z,95128.50
2022-09-06T17:51:49.380Z,95138.91
2022-09-06T17:54:17.721Z,95131.41
2022-09-06T17:56:45.856Z,95126.22
2022-09-06T17:59:15.742Z,95140.28
2022-09-06T18:01:46.374Z,95140.63
2022-09-06T18:04:15.289Z,95132.59
2022-09-06T18:06:46.530Z,95131.38
2022-09-06T18:09:17.501Z,95126.66
2022-09-06T18:11:47.157Z,95124.34
2022-09-06T18:14:20.856Z,95115.38
2022-09-06T18:16:49.498Z,95122.63
2022-09-06T18:19:18.777Z,95124.66
2022-09-06T18:21:47.571Z,95127.22
2022-09-06T18:24:16.365Z,95140.00
2022-09-06T18:26:44.777Z,95160.22
2022-09-06T18:29:15.046Z,95160.66
2022-09-06T18:31:45.891Z,95159.66
2022-09-06T18:34:14.095Z,95144.28
2022-09-06T18:36:42.283Z,95138.97
2022-09-06T18:39:11.395Z,95150.13
2022-09-06T18:41:57.007Z,95149.84
2022-09-06T18:44:25.632Z,95145.53
2022-09-06T18:46:56.953Z,95141.63
2022-09-06T18:49:25.133Z,95143.28
2022-09-06T18:51:53.130Z,95136.41
2022-09-06T18:54:21.752Z,95152.91
2022-09-06T18:56:50.422Z,95157.19
2022-09-06T18:59:19.092Z,95176.38
2022-09-06T19:01:47.216Z,95188.63
2022-09-06T19:04:16.796Z,95193.44
2022-09-06T19:06:46.039Z,95195.16
2022-09-06T19:09:16.463Z,95190.66
2022-09-06T19:11:46.972Z,95204.59
2022-09-06T19:14:15.050Z,95202.72
2022-09-06T19:16:44.537Z,95201.91
2022-09-06T19:19:13.508Z,95201.81
2022-09-06T19:21:42.929Z,95191.19
2022-09-06T19:24:14.598Z,95198.66
2022-09-06T19:26:44.835Z,95212.44
2022-09-06T19:29:15.409Z,95215.09
2022-09-06T19:31:43.868Z,95220.78
2022-09-06T19:34:13.566Z,95219.47
2022-09-06T19:36:44.498Z,95210.78
2022-09-06T19:39:15.420Z,95207.66
2022-09-06T19:41:46.908Z,95206.22
2022-09-06T19:44:16.751Z,95215.16
2022-09-06T19:46:46.940Z,95210.28
2022-09-06T19:49:19.188Z,95220.88
2022-09-06T19:51:50.900Z,95218.97
2022-09-06T19:54:19.483Z,95228.34
2022-09-06T19:56:48.068Z,95240.41
2022-09-06T19:59:17.748Z,95250.63
2022-09-06T20:01:47.743Z,95246.66
2022-09-06T20:04:16.463Z,95245.50
2022-09-06T20:06:44.605Z,95252.91
2022-09-06T20:09:15.914Z,95258.56
2022-09-06T20:11:44.049Z,95252.72
2022-09-06T20:14:13.205Z,95253.59
2022-09-06T20:16:42.669Z,95249.78
2022-09-06T20:19:12.025Z,95256.53
2022-09-06T20:21:40.267Z,95255.31
2022-09-06T20:24:08.475Z,95263.97
2022-09-06T20:26:38.158Z,95263.69
2022-09-06T20:29:06.948Z,95264.81
2022-09-06T20:31:36.908Z,95260.03
2022-09-06T20:34:06.446Z,95260.06
2022-09-06T20:36:34.379Z,95252.97
2022-09-06T20:39:03.042Z,95259.06
2022-09-06T20:41:31.093Z,95265.03
2022-09-06T20:44:01.246Z,95256.91
2022-09-06T20:46:32.163Z,95248.88
2022-09-06T20:49:04.382Z,95250.44
2022-09-06T20:51:33.899Z,95258.72
2022-09-06T20:54:02.677Z,95272.22
2022-09-06T20:56:34.422Z,95274.78
2022-09-06T20:59:06.315Z,95281.06
2022-09-06T21:01:36.271Z,95277.34
2022-09-06T21:04:06.475Z,95277.19
2022-09-06T21:06:36.195Z,95274.59
2022-09-06T21:09:05.848Z,95282.72
2022-09-06T21:11:34.260Z,95280.06
2022-09-06T21:14:04.115Z,95287.72
2022-09-06T21:16:32.607Z,95281.06
2022-09-06T21:19:02.579Z,95287.38
2022-09-06T21:21:32.499Z,95292.13
2022-09-06T21:24:01.407Z,95288.88
2022-09-06T21:26:29.559Z,95287.38
2022-09-06T21:28:57.623Z,95283.66
2022-09-06T21:31:28.767Z,95278.81
2022-09-06T21:33:58.595Z,95272.53
2022-09-06T21:36:29.993Z,95278.75
2022-09-06T21:39:00.192Z,95271.53
2022-09-06T21:41:29.309Z,95277.78
2022-09-06T21:43:59.639Z,95275.50
2022-09-06T21:46:33.190Z,95269.53
2022-09-06T21:49:03.552Z,95272.13
2022-09-06T21:51:32.676Z,95270.50
2022-09-06T21:54:03.571Z,95263.06
2022-09-06T21:56:32.506Z,95255.91
2022-09-06T21:59:00.807Z,95255.09
2022-09-06T22:01:32.559Z,95257.75
2022-09-06T22:04:01.244Z,95264.13
2022-09-06T22:06:31.070Z,95259.94
2022-09-06T22:09:00.474Z,95257.03
2022-09-06T22:11:31.147Z,95260.19
2022-09-06T22:14:00.097Z,95262.06
2022-09-06T22:16:28.735Z,95261.50
2022-09-06T22:18:58.472Z,95264.13
2022-09-06T22:21:26.735Z,95270.00
2022-09-06T22:23:56.424Z,95267.28
2022-09-06T22:26:26.138Z,95258.25
2022-09-06T22:28:55.425Z,95257.13
2022-09-06T22:31:24.489Z,95252.84
2022-09-06T22:33:52.854Z,95250.16
2022-09-06T22:36:24.196Z,95248.09
2022-09-06T22:38:56.385Z,95258.06
2022-09-06T22:41:25.608Z,95256.75
2022-09-06T22:43:53.767Z,95254.59
2022-09-06T22:46:22.274Z,95251.28
2022-09-06T22:48:50.491Z,95250.63
2022-09-06T22:51:18.557Z,95245.25
2022-09-06T22:53:47.978Z,95244.06
2022-09-06T22:56:16.137Z,95237.13
2022-09-06T22:58:44.128Z,95231.22
2022-09-06T23:01:14.255Z,95246.06
2022-09-06T23:03:42.930Z,95239.19
2022-09-06T23:06:11.748Z,95246.72
2022-09-06T23:08:41.360Z,95235.56
2022-09-06T23:11:12.785Z,95238.72
2022-09-06T23:13:44.047Z,95241.91
2022-09-06T23:16:14.319Z,95242.72
2022-09-06T23:18:42.671Z,95249.66
2022-09-06T23:21:12.858Z,95259.47
2022-09-06T23:23:42.750Z,95264.13
2022-09-06T23:26:13.468Z,95281.06
2022-09-06T23:28:41.729Z,95290.44
2022-09-06T23:31:11.760Z,95291.75
2022-09-06T23:33:40.453Z,95300.50
2022-09-06T23:36:10.331Z,95276.88
2022-09-06T23:38:41.227Z,95272.22
2022-09-06T23:41:10.338Z,95262.97
2022-09-06T23:43:40.461Z,95272.78
2022-09-06T23:46:09.185Z,95273.81
2022-09-06T23:48:37.556Z,95270.31
2022-09-06T23:51:05.923Z,95286.47
2022-09-06T23:53:34.327Z,95281.16
2022-09-06T23:56:03.113Z,95282.19
2022-09-06T23:58:31.470Z,95292.25
